createdAt,value
2017-06-29T00:00:14.669Z,99.90
2017-06-29T00:02:42.985Z,99.90
2017-06-29T00:05:12.027Z,99.90
2017-06-29T00:07:40.290Z,99.90
2017-06-29T00:10:08.581Z,99.90
2017-06-29T00:12:36.882Z,99.90
2017-06-29T00:15:05.257Z,99.90
2017-06-29T00:17:33.538Z,99.90
2017-06-29T00:20:01.812Z,99.90
2017-06-29T00:22:30.295Z,99.90
2017-06-29T00:24:58.577Z,99.90
2017-06-29T00:27:26.955Z,99.90
2017-06-29T00:29:55.232Z,99.90
2017-06-29T00:32:23.487Z,99.90
2017-06-29T00:34:51.826Z,99.90
2017-06-29T00:37:20.141Z,99.90
2017-06-29T00:39:48.515Z,99.90
2017-06-29T00:42:16.793Z,99.90
2017-06-29T00:44:45.075Z,99.90
2017-06-29T00:47:13.473Z,99.90
2017-06-29T00:49:41.738Z,99.90
2017-06-29T00:52:10.048Z,99.90
2017-06-29T00:54:39.088Z,99.90
2017-06-29T00:57:07.366Z,99.90
2017-06-29T00:59:35.770Z,99.90
2017-06-29T01:02:04.153Z,99.90
2017-06-29T01:04:32.518Z,99.90
2017-06-29T01:07:00.795Z,99.90
2017-06-29T01:09:29.184Z,99.90
2017-06-29T01:11:57.537Z,99.90
2017-06-29T01:14:25.807Z,99.90
2017-06-29T01:16:54.106Z,99.90
2017-06-29T01:19:22.590Z,99.90
2017-06-29T01:21:50.869Z,99.90
2017-06-29T01:24:19.251Z,99.90
2017-06-29T01:26:47.525Z,99.90
2017-06-29T01:29:15.906Z,99.90
2017-06-29T01:31:44.161Z,99.90
2017-06-29T01:34:12.454Z,99.90
2017-06-29T01:36:40.740Z,99.90
2017-06-29T01:39:09.821Z,99.90
2017-06-29T01:41:38.214Z,99.90
2017-06-29T01:44:06.469Z,99.90
2017-06-29T01:46:34.856Z,99.90
2017-06-29T01:49:03.288Z,99.90
2017-06-29T01:51:31.618Z,99.90
2017-06-29T01:54:00.183Z,99.90
2017-06-29T01:56:28.452Z,99.90
2017-06-29T01:58:56.743Z,99.90
2017-06-29T02:01:25.030Z,99.90
2017-06-29T02:03:53.405Z,99.90
2017-06-29T02:06:21.789Z,99.90
2017-06-29T02:08:50.168Z,99.90
2017-06-29T02:11:18.554Z,99.90
2017-06-29T02:13:46.920Z,99.90
2017-06-29T02:16:15.188Z,99.90
2017-06-29T02:18:43.589Z,99.90
2017-06-29T02:21:11.881Z,99.90
2017-06-29T02:23:40.941Z,99.90
2017-06-29T02:26:09.206Z,99.90
2017-06-29T02:28:37.546Z,99.90
2017-06-29T02:31:05.794Z,99.90
2017-06-29T02:33:34.114Z,99.90
2017-06-29T02:36:02.412Z,99.90
2017-06-29T02:38:30.781Z,99.90
2017-06-29T02:40:59.171Z,99.90
2017-06-29T02:43:27.444Z,99.90
2017-06-29T02:45:55.718Z,99.90
2017-06-29T02:48:23.989Z,99.90
2017-06-29T02:50:52.393Z,99.90
2017-06-29T02:53:20.755Z,99.90
2017-06-29T02:55:49.041Z,99.90
2017-06-29T02:58:17.332Z,99.90
2017-06-29T03:00:45.613Z,99.90
2017-06-29T03:03:13.895Z,99.90
2017-06-29T03:05:42.927Z,99.90
2017-06-29T03:08:11.242Z,99.90
2017-06-29T03:10:39.526Z,99.90
2017-06-29T03:13:07.782Z,99.90
2017-06-29T03:15:36.856Z,99.90
2017-06-29T03:18:05.129Z,99.90
2017-06-29T03:20:33.446Z,99.90
2017-06-29T03:23:01.727Z,99.90
2017-06-29T03:25:30.046Z,99.90
2017-06-29T03:27:58.322Z,99.90
2017-06-29T03:30:26.578Z,99.90
2017-06-29T03:32:54.881Z,99.90
2017-06-29T03:35:23.273Z,99.90
2017-06-29T03:37:51.537Z,99.90
2017-06-29T03:40:19.837Z,99.90
2017-06-29T03:42:48.907Z,99.90
2017-06-29T03:45:17.192Z,99.90
2017-06-29T03:47:45.457Z,99.90
2017-06-29T03:50:13.767Z,99.90
2017-06-29T03:52:42.827Z,99.90
2017-06-29T03:55:11.850Z,99.90
2017-06-29T03:57:40.130Z,99.90
2017-06-29T04:00:08.419Z,99.90
2017-06-29T04:02:36.729Z,99.90
2017-06-29T04:05:05.006Z,99.90
2017-06-29T04:07:33.363Z,99.90
2017-06-29T04:10:01.769Z,99.90
2017-06-29T04:12:30.132Z,99.90
2017-06-29T04:14:58.517Z,99.90
2017-06-29T04:17:27.552Z,99.90
2017-06-29T04:19:55.816Z,99.90
2017-06-29T04:22:24.204Z,99.90
2017-06-29T04:24:52.467Z,99.90
2017-06-29T04:27:20.811Z,99.90
2017-06-29T04:29:49.149Z,99.90
2017-06-29T04:32:18.232Z,99.90
2017-06-29T04:34:46.509Z,99.90
2017-06-29T04:37:14.783Z,99.90
2017-06-29T04:39:43.168Z,99.90
2017-06-29T04:42:11.431Z,99.90
2017-06-29T04:44:39.821Z,99.90
2017-06-29T04:47:08.102Z,99.90
2017-06-29T04:49:36.358Z,99.90
2017-06-29T04:52:04.792Z,99.90
2017-06-29T04:54:33.187Z,99.90
2017-06-29T04:57:01.532Z,99.90
2017-06-29T04:59:29.790Z,99.90
2017-06-29T05:01:58.082Z,99.90
2017-06-29T05:04:26.402Z,99.90
2017-06-29T05:06:54.744Z,99.90
2017-06-29T05:09:23.842Z,99.90
2017-06-29T05:11:52.207Z,99.90
2017-06-29T05:14:20.528Z,99.90
2017-06-29T05:16:48.888Z,99.90
2017-06-29T05:19:17.928Z,99.90
2017-06-29T05:21:46.335Z,99.90
2017-06-29T05:24:14.614Z,99.90
2017-06-29T05:26:42.940Z,99.90
2017-06-29T05:29:11.309Z,99.90
2017-06-29T05:31:39.599Z,99.90
2017-06-29T05:34:08.043Z,99.90
2017-06-29T05:36:37.088Z,99.90
2017-06-29T05:39:05.770Z,99.90
2017-06-29T05:41:34.188Z,99.90
2017-06-29T05:44:02.794Z,99.90
2017-06-29T05:46:31.092Z,99.90
2017-06-29T05:48:59.435Z,99.90
2017-06-29T05:51:27.716Z,99.90
2017-06-29T05:53:56.084Z,99.90
2017-06-29T05:56:24.470Z,99.90
2017-06-29T05:58:52.800Z,99.90
2017-06-29T06:01:21.066Z,99.90
2017-06-29T06:03:49.504Z,99.90
2017-06-29T06:06:17.786Z,99.90
2017-06-29T06:08:46.077Z,99.90
2017-06-29T06:11:15.298Z,99.90
2017-06-29T06:13:43.623Z,99.90
2017-06-29T06:16:11.927Z,99.90
2017-06-29T06:18:40.998Z,99.90
2017-06-29T06:21:09.315Z,99.90
2017-06-29T06:23:38.363Z,99.70
2017-06-29T06:26:06.647Z,99.60
2017-06-29T06:28:34.934Z,99.50
2017-06-29T06:31:03.206Z,99.20
2017-06-29T06:33:31.582Z,99.70
2017-06-29T06:35:59.856Z,99.80
2017-06-29T06:38:28.124Z,99.60
2017-06-29T06:40:56.405Z,99.40
2017-06-29T06:43:24.716Z,98.80
2017-06-29T06:45:53.085Z,97.50
2017-06-29T06:48:21.462Z,97.20
2017-06-29T06:50:49.723Z,96.60
2017-06-29T06:53:18.102Z,96.40
2017-06-29T06:55:46.379Z,95.50
2017-06-29T06:58:14.769Z,95.70
2017-06-29T07:00:43.036Z,95.80
2017-06-29T07:03:11.296Z,95.10
2017-06-29T07:05:39.592Z,94.90
2017-06-29T07:08:07.850Z,94.60
2017-06-29T07:10:36.158Z,94.30
2017-06-29T07:13:04.427Z,93.80
2017-06-29T07:15:32.781Z,93.60
2017-06-29T07:18:01.043Z,93.30
2017-06-29T07:20:29.376Z,93.50
2017-06-29T07:22:57.659Z,93.10
2017-06-29T07:25:26.734Z,93.10
2017-06-29T07:27:55.107Z,93.10
2017-06-29T07:30:23.398Z,93.20
2017-06-29T07:32:51.659Z,93.20
2017-06-29T07:35:20.052Z,93.20
2017-06-29T07:37:48.318Z,93.20
2017-06-29T07:40:16.600Z,93.20
2017-06-29T07:42:44.868Z,93.10
2017-06-29T07:45:13.180Z,92.90
2017-06-29T07:47:41.555Z,93.30
2017-06-29T07:50:09.829Z,92.80
2017-06-29T07:52:38.126Z,92.90
2017-06-29T07:55:07.162Z,93.40
2017-06-29T07:57:35.559Z,93.40
2017-06-29T08:00:03.819Z,93.70
2017-06-29T08:02:32.109Z,94.00
2017-06-29T08:05:00.510Z,94.40
2017-06-29T08:07:28.765Z,94.70
2017-06-29T08:09:57.087Z,95.50
2017-06-29T08:12:26.148Z,96.20
2017-06-29T08:14:54.423Z,96.10
2017-06-29T08:17:22.803Z,96.70
2017-06-29T08:19:51.071Z,96.80
2017-06-29T08:22:19.455Z,96.80
2017-06-29T08:24:47.731Z,97.20
2017-06-29T08:27:16.110Z,96.90
2017-06-29T08:29:44.385Z,96.20
2017-06-29T08:32:12.680Z,96.40
2017-06-29T08:34:41.007Z,96.30
2017-06-29T08:37:09.328Z,96.40
2017-06-29T08:39:37.592Z,96.50
2017-06-29T08:42:05.973Z,96.40
2017-06-29T08:44:34.264Z,96.70
2017-06-29T08:47:02.561Z,97.50
2017-06-29T08:49:31.623Z,98.10
2017-06-29T08:52:00.734Z,97.90
2017-06-29T08:54:29.097Z,97.80
2017-06-29T08:56:57.360Z,98.10
2017-06-29T08:59:25.674Z,98.30
2017-06-29T09:01:53.952Z,98.10
2017-06-29T09:04:22.422Z,98.30
2017-06-29T09:06:50.667Z,98.70
2017-06-29T09:09:19.075Z,99.20
2017-06-29T09:11:47.347Z,99.50
2017-06-29T09:14:15.602Z,99.90
2017-06-29T09:16:43.897Z,99.90
2017-06-29T09:19:12.157Z,99.90
2017-06-29T09:21:40.592Z,99.90
2017-06-29T09:24:09.651Z,99.90
2017-06-29T09:26:37.927Z,99.90
2017-06-29T09:29:06.275Z,99.90
2017-06-29T09:31:34.536Z,99.90
2017-06-29T09:34:02.868Z,99.90
2017-06-29T09:36:31.210Z,99.90
2017-06-29T09:38:59.502Z,99.90
2017-06-29T09:41:27.916Z,99.90
2017-06-29T09:43:56.296Z,99.90
2017-06-29T09:46:24.680Z,99.90
2017-06-29T09:48:52.969Z,99.90
2017-06-29T09:51:22.031Z,99.90
2017-06-29T09:53:50.316Z,99.90
2017-06-29T09:56:18.636Z,99.90
2017-06-29T09:58:46.911Z,99.90
2017-06-29T10:01:15.186Z,99.90
2017-06-29T10:03:43.512Z,99.90
2017-06-29T10:06:11.793Z,99.90
2017-06-29T10:08:40.091Z,99.90
2017-06-29T10:11:08.445Z,99.90
2017-06-29T10:13:36.808Z,99.90
2017-06-29T10:16:05.081Z,99.90
2017-06-29T10:18:33.394Z,99.90
2017-06-29T10:21:01.775Z,99.90
2017-06-29T10:23:30.193Z,99.90
2017-06-29T10:25:58.516Z,99.90
2017-06-29T10:28:26.792Z,99.90
2017-06-29T10:30:55.113Z,99.90
2017-06-29T10:33:24.148Z,99.90
2017-06-29T10:35:52.446Z,99.90
2017-06-29T10:38:20.759Z,99.90
2017-06-29T10:40:49.800Z,99.90
2017-06-29T10:43:18.113Z,99.90
2017-06-29T10:45:46.373Z,99.90
2017-06-29T10:48:14.708Z,99.90
2017-06-29T10:50:43.032Z,99.90
2017-06-29T10:53:11.301Z,99.90
2017-06-29T10:55:39.614Z,99.90
2017-06-29T10:58:08.668Z,99.90
2017-06-29T11:00:36.961Z,99.90
2017-06-29T11:03:05.265Z,99.90
2017-06-29T11:05:34.309Z,99.90
2017-06-29T11:08:02.620Z,99.90
2017-06-29T11:10:30.879Z,99.90
2017-06-29T11:12:59.160Z,99.90
2017-06-29T11:15:27.534Z,99.90
2017-06-29T11:17:55.840Z,99.90
2017-06-29T11:20:24.199Z,99.90
2017-06-29T11:22:52.480Z,99.90
2017-06-29T11:25:20.745Z,99.90
2017-06-29T11:27:49.079Z,99.90
2017-06-29T11:30:17.408Z,99.90
2017-06-29T11:32:45.885Z,99.90
2017-06-29T11:35:14.203Z,99.90
2017-06-29T11:37:43.271Z,99.90
2017-06-29T11:40:11.589Z,99.90
2017-06-29T11:42:39.959Z,99.90
2017-06-29T11:45:08.230Z,99.90
2017-06-29T11:47:36.631Z,99.90
2017-06-29T11:50:04.920Z,99.90
2017-06-29T11:52:33.957Z,99.90
2017-06-29T11:55:02.282Z,99.90
2017-06-29T11:57:30.556Z,99.90
2017-06-29T11:59:58.853Z,99.90
2017-06-29T12:02:27.968Z,99.90
2017-06-29T12:04:57.067Z,99.90
2017-06-29T12:07:25.370Z,99.90
2017-06-29T12:09:53.721Z,99.90
2017-06-29T12:12:22.887Z,99.90
2017-06-29T12:14:51.163Z,99.90
2017-06-29T12:17:19.493Z,99.90
2017-06-29T12:19:47.759Z,99.90
2017-06-29T12:22:16.024Z,99.90
2017-06-29T12:24:44.348Z,99.90
2017-06-29T12:27:12.639Z,99.90
2017-06-29T12:29:40.960Z,99.90
2017-06-29T12:32:10.048Z,99.90
2017-06-29T12:34:39.108Z,99.90
2017-06-29T12:37:07.475Z,99.90
2017-06-29T12:39:35.744Z,99.90
2017-06-29T12:42:03.998Z,99.90
2017-06-29T12:44:32.284Z,99.90
2017-06-29T12:47:00.589Z,99.90
2017-06-29T12:49:28.950Z,99.90
2017-06-29T12:51:57.237Z,99.90
2017-06-29T12:54:25.515Z,99.90
2017-06-29T12:56:53.908Z,99.90
2017-06-29T12:59:22.188Z,99.90
2017-06-29T13:01:50.517Z,99.90
2017-06-29T13:04:18.837Z,99.90
2017-06-29T13:06:47.114Z,99.90
2017-06-29T13:09:15.491Z,99.90
2017-06-29T13:11:43.746Z,99.90
2017-06-29T13:14:12.070Z,99.90
2017-06-29T13:16:40.359Z,99.90
2017-06-29T13:19:09.412Z,99.90
2017-06-29T13:21:37.796Z,99.90
2017-06-29T13:24:06.069Z,99.90
2017-06-29T13:26:34.459Z,99.90
2017-06-29T13:29:03.549Z,99.90
2017-06-29T13:31:31.847Z,99.90
2017-06-29T13:34:00.924Z,99.90
2017-06-29T13:36:29.186Z,99.90
2017-06-29T13:38:57.583Z,99.90
2017-06-29T13:41:25.864Z,99.90
2017-06-29T13:43:54.289Z,99.90
2017-06-29T13:46:22.564Z,99.90
2017-06-29T13:48:50.846Z,99.90
2017-06-29T13:51:19.194Z,99.90
2017-06-29T13:53:47.554Z,99.90
2017-06-29T13:56:15.933Z,99.90
2017-06-29T13:58:44.187Z,99.90
2017-06-29T14:01:12.607Z,99.90
2017-06-29T14:03:40.967Z,99.90
2017-06-29T14:06:09.391Z,99.90
2017-06-29T14:08:38.425Z,99.90
2017-06-29T14:11:06.703Z,99.90
2017-06-29T14:13:35.014Z,99.90
2017-06-29T14:16:03.288Z,99.90
2017-06-29T14:18:31.604Z,99.90
2017-06-29T14:21:00.029Z,99.90
2017-06-29T14:23:28.306Z,99.90
2017-06-29T14:25:56.602Z,99.90
2017-06-29T14:28:24.947Z,99.90
2017-06-29T14:30:53.238Z,99.90
2017-06-29T14:33:21.538Z,99.90
2017-06-29T14:35:49.818Z,99.90
2017-06-29T14:38:18.203Z,99.90
2017-06-29T14:40:47.241Z,99.90
2017-06-29T14:43:15.510Z,99.90
2017-06-29T14:45:43.830Z,99.90
2017-06-29T14:48:12.094Z,99.90
2017-06-29T14:50:40.435Z,99.90
2017-06-29T14:53:08.682Z,99.90
2017-06-29T14:55:37.030Z,99.90
2017-06-29T14:58:05.866Z,99.90
2017-06-29T15:00:35.131Z,99.90
2017-06-29T15:03:03.395Z,99.90
2017-06-29T15:05:31.789Z,99.90
2017-06-29T15:08:00.166Z,99.90
2017-06-29T15:10:28.559Z,99.90
2017-06-29T15:12:56.926Z,99.90
2017-06-29T15:15:25.201Z,99.90
2017-06-29T15:17:53.475Z,99.90
2017-06-29T15:20:21.856Z,99.90
2017-06-29T15:22:50.138Z,99.90
2017-06-29T15:25:18.428Z,99.90
2017-06-29T15:27:46.791Z,99.90
2017-06-29T15:30:15.080Z,99.90
2017-06-29T15:32:43.361Z,99.90
2017-06-29T15:35:12.426Z,99.90
2017-06-29T15:37:40.711Z,99.90
2017-06-29T15:40:08.984Z,99.90
2017-06-29T15:42:37.378Z,99.90
2017-06-29T15:45:05.762Z,99.90
2017-06-29T15:47:34.052Z,99.90
2017-06-29T15:50:03.141Z,99.90
2017-06-29T15:52:31.520Z,99.90
2017-06-29T15:54:59.771Z,99.90
2017-06-29T15:57:28.058Z,99.90
2017-06-29T15:59:56.441Z,99.90
2017-06-29T16:02:24.920Z,99.90
2017-06-29T16:04:53.180Z,99.90
2017-06-29T16:07:21.493Z,99.90
2017-06-29T16:09:49.763Z,99.90
2017-06-29T16:12:18.074Z,99.90
2017-06-29T16:14:46.326Z,99.90
2017-06-29T16:17:15.361Z,99.90
2017-06-29T16:19:43.681Z,99.90
2017-06-29T16:22:11.989Z,99.90
2017-06-29T16:24:41.128Z,99.90
2017-06-29T16:27:09.475Z,99.90
2017-06-29T16:29:37.747Z,99.90
2017-06-29T16:32:06.112Z,99.90
2017-06-29T16:34:34.380Z,99.90
2017-06-29T16:37:03.566Z,99.90
2017-06-29T16:39:31.832Z,99.90
2017-06-29T16:42:00.104Z,99.90
2017-06-29T16:44:28.391Z,99.90
2017-06-29T16:46:56.784Z,99.90
2017-06-29T16:49:25.067Z,99.90
2017-06-29T16:51:53.322Z,99.90
2017-06-29T16:54:21.663Z,99.90
2017-06-29T16:56:49.928Z,99.90
2017-06-29T16:59:18.195Z,99.90
2017-06-29T17:01:46.506Z,99.90
2017-06-29T17:04:15.580Z,99.90
2017-06-29T17:06:43.942Z,99.90
2017-06-29T17:09:12.219Z,99.90
2017-06-29T17:11:40.623Z,99.90
2017-06-29T17:14:08.874Z,99.90
2017-06-29T17:16:37.156Z,99.90
2017-06-29T17:19:05.548Z,99.90
2017-06-29T17:21:33.926Z,99.90
2017-06-29T17:24:02.307Z,99.90
2017-06-29T17:26:30.563Z,99.90
2017-06-29T17:28:58.883Z,99.90
2017-06-29T17:31:27.235Z,99.90
2017-06-29T17:33:55.539Z,99.90
2017-06-29T17:36:23.908Z,99.90
2017-06-29T17:38:52.204Z,99.90
2017-06-29T17:41:21.368Z,99.90
2017-06-29T17:43:49.630Z,99.90
2017-06-29T17:46:17.906Z,99.90
2017-06-29T17:48:46.195Z,99.90
2017-06-29T17:51:14.497Z,99.90
2017-06-29T17:53:43.619Z,99.90
2017-06-29T17:56:11.939Z,99.90
2017-06-29T17:58:40.221Z,99.90
2017-06-29T18:01:08.600Z,99.90
2017-06-29T18:03:36.870Z,99.90
2017-06-29T18:06:05.165Z,99.90
2017-06-29T18:08:33.432Z,99.90
2017-06-29T18:11:01.721Z,99.90
2017-06-29T18:13:30.033Z,99.90
2017-06-29T18:15:59.169Z,99.90
2017-06-29T18:18:27.487Z,99.90
2017-06-29T18:20:55.752Z,99.90
2017-06-29T18:23:24.121Z,99.90
2017-06-29T18:25:52.387Z,99.90
2017-06-29T18:28:20.785Z,99.90
2017-06-29T18:30:49.048Z,99.90
2017-06-29T18:33:17.340Z,99.90
2017-06-29T18:35:45.705Z,99.90
2017-06-29T18:38:14.010Z,99.90
2017-06-29T18:40:42.267Z,99.90
2017-06-29T18:43:10.603Z,99.90
2017-06-29T18:45:38.882Z,99.90
2017-06-29T18:48:07.199Z,99.90
2017-06-29T18:50:35.468Z,99.90
2017-06-29T18:53:03.744Z,99.90
2017-06-29T18:55:32.057Z,99.90
2017-06-29T18:58:01.103Z,99.90
2017-06-29T19:00:29.387Z,99.90
2017-06-29T19:02:57.668Z,99.90
2017-06-29T19:05:25.994Z,99.90
2017-06-29T19:07:55.386Z,99.90
2017-06-29T19:10:23.737Z,99.90
2017-06-29T19:12:52.011Z,99.90
2017-06-29T19:15:20.275Z,99.90
2017-06-29T19:17:48.584Z,99.90
2017-06-29T19:20:16.958Z,99.90
2017-06-29T19:22:45.331Z,99.90
2017-06-29T19:25:13.607Z,99.90
2017-06-29T19:27:41.899Z,99.90
2017-06-29T19:30:10.163Z,99.90
2017-06-29T19:32:38.575Z,99.90
2017-06-29T19:35:07.648Z,99.90
2017-06-29T19:37:36.017Z,99.90
2017-06-29T19:40:04.291Z,99.90
2017-06-29T19:42:32.600Z,99.90
2017-06-29T19:45:01.673Z,99.90
2017-06-29T19:47:29.958Z,99.90
2017-06-29T19:49:58.246Z,99.90
2017-06-29T19:52:27.405Z,99.90
2017-06-29T19:54:55.675Z,99.90
2017-06-29T19:57:23.953Z,99.90
2017-06-29T19:59:52.239Z,99.90
2017-06-29T20:02:20.514Z,99.90
2017-06-29T20:04:48.836Z,99.90
2017-06-29T20:07:17.892Z,99.90
2017-06-29T20:09:46.173Z,99.90
2017-06-29T20:12:14.556Z,99.90
2017-06-29T20:14:42.826Z,99.90
2017-06-29T20:17:11.230Z,99.90
2017-06-29T20:19:40.387Z,99.90
2017-06-29T20:22:08.692Z,99.90
2017-06-29T20:24:37.729Z,99.90
2017-06-29T20:27:06.037Z,99.90
2017-06-29T20:29:34.410Z,99.90
2017-06-29T20:32:02.695Z,99.90
2017-06-29T20:34:31.080Z,99.90
2017-06-29T20:36:59.359Z,99.90
2017-06-29T20:39:27.637Z,99.90
2017-06-29T20:41:56.016Z,99.90
2017-06-29T20:44:24.384Z,99.90
2017-06-29T20:46:52.681Z,99.90
2017-06-29T20:49:20.934Z,99.90
2017-06-29T20:51:49.344Z,99.90
2017-06-29T20:54:18.384Z,99.90
2017-06-29T20:56:46.696Z,99.90
2017-06-29T20:59:14.968Z,99.90
2017-06-29T21:01:43.292Z,99.90
2017-06-29T21:04:12.356Z,99.90
2017-06-29T21:06:40.638Z,99.90
2017-06-29T21:09:08.954Z,99.90
2017-06-29T21:11:37.286Z,99.90
2017-06-29T21:14:05.561Z,99.90
2017-06-29T21:16:33.844Z,99.90
2017-06-29T21:19:02.235Z,99.90
2017-06-29T21:21:30.497Z,99.90
2017-06-29T21:23:58.833Z,99.90
2017-06-29T21:26:27.132Z,99.90
2017-06-29T21:28:55.411Z,99.90
2017-06-29T21:31:23.730Z,99.90
2017-06-29T21:33:52.768Z,99.90
2017-06-29T21:36:21.088Z,99.90
2017-06-29T21:38:49.357Z,99.90
2017-06-29T21:41:17.636Z,99.90
2017-06-29T21:43:45.912Z,99.90
2017-06-29T21:46:14.171Z,99.90
2017-06-29T21:48:42.450Z,99.90
2017-06-29T21:51:10.741Z,99.90
2017-06-29T21:53:39.024Z,99.90
2017-06-29T21:56:07.405Z,99.90
2017-06-29T21:58:35.680Z,99.90
2017-06-29T22:01:03.971Z,99.90
2017-06-29T22:03:32.235Z,99.90
2017-06-29T22:06:00.535Z,99.90
2017-06-29T22:08:28.807Z,99.90
2017-06-29T22:10:57.080Z,99.90
2017-06-29T22:13:25.353Z,99.90
2017-06-29T22:15:53.634Z,99.90
2017-06-29T22:18:22.013Z,99.90
2017-06-29T22:20:50.400Z,99.90
2017-06-29T22:23:18.784Z,99.90
2017-06-29T22:25:47.153Z,99.90
2017-06-29T22:28:15.417Z,99.90
2017-06-29T22:30:44.579Z,99.90
2017-06-29T22:33:12.846Z,99.90
2017-06-29T22:35:41.095Z,99.90
2017-06-29T22:38:09.428Z,99.90
2017-06-29T22:40:37.804Z,99.90
2017-06-29T22:43:06.160Z,99.90
2017-06-29T22:45:34.421Z,99.90
2017-06-29T22:48:02.733Z,99.90
2017-06-29T22:50:31.102Z,99.90
2017-06-29T22:52:59.368Z,99.90
2017-06-29T22:55:27.681Z,99.90
2017-06-29T22:57:56.043Z,99.90
2017-06-29T23:00:24.326Z,99.90
2017-06-29T23:02:52.698Z,99.90
2017-06-29T23:05:20.954Z,99.90
2017-06-29T23:07:49.265Z,99.90
2017-06-29T23:10:17.512Z,99.90
2017-06-29T23:12:45.782Z,99.90
2017-06-29T23:15:14.054Z,99.90
2017-06-29T23:17:42.349Z,99.90
2017-06-29T23:20:11.362Z,99.90
2017-06-29T23:22:39.605Z,99.90
2017-06-29T23:25:07.901Z,99.90
2017-06-29T23:27:36.156Z,99.90
2017-06-29T23:30:04.560Z,99.90
2017-06-29T23:32:32.834Z,99.90
2017-06-29T23:35:01.096Z,99.90
2017-06-29T23:37:29.397Z,99.90
2017-06-29T23:39:57.643Z,99.90
2017-06-29T23:42:25.953Z,99.90
2017-06-29T23:44:54.194Z,99.90
2017-06-29T23:47:22.500Z,99.90
2017-06-29T23:49:50.778Z,99.90
2017-06-29T23:52:19.043Z,99.90
2017-06-29T23:54:47.326Z,99.90
2017-06-29T23:57:15.586Z,99.90
2017-06-29T23:59:43.884Z,99.90
